createdAt,value
2018-03-22T00:01:25.156Z,11.57
2018-03-22T00:03:53.024Z,10.77
2018-03-22T00:06:20.895Z,10.75
2018-03-22T00:08:48.758Z,10.30
2018-03-22T00:11:16.623Z,11.57
2018-03-22T00:13:44.495Z,10.32
2018-03-22T00:16:12.360Z,11.52
2018-03-22T00:18:40.231Z,11.07
2018-03-22T00:21:08.914Z,10.75
2018-03-22T00:23:36.781Z,10.57
2018-03-22T00:26:04.648Z,11.35
2018-03-22T00:28:32.515Z,11.48
2018-03-22T00:31:00.383Z,12.25
2018-03-22T00:33:28.251Z,11.25
2018-03-22T00:35:56.116Z,13.00
2018-03-22T00:38:23.992Z,13.13
2018-03-22T00:40:51.851Z,12.02
2018-03-22T00:43:19.760Z,12.43
2018-03-22T00:45:48.408Z,11.63
2018-03-22T00:48:16.272Z,11.85
2018-03-22T00:50:44.143Z,11.38
2018-03-22T00:53:12.011Z,11.23
2018-03-22T00:55:39.874Z,12.18
2018-03-22T00:58:07.741Z,12.10
2018-03-22T01:00:35.609Z,11.38
2018-03-22T01:03:03.476Z,12.95
2018-03-22T01:05:31.344Z,13.93
2018-03-22T01:07:59.212Z,12.27
2018-03-22T01:10:27.078Z,11.23
2018-03-22T01:12:54.946Z,11.00
2018-03-22T01:15:22.817Z,11.35
2018-03-22T01:17:50.680Z,11.52
2018-03-22T01:20:18.548Z,9.60
2018-03-22T01:22:46.415Z,11.05
2018-03-22T01:25:14.283Z,9.82
2018-03-22T01:27:42.150Z,11.00
2018-03-22T01:30:21.897Z,10.00
2018-03-22T01:32:49.774Z,10.77
2018-03-22T01:35:17.631Z,10.05
2018-03-22T01:37:45.498Z,10.35
2018-03-22T01:40:13.365Z,10.80
2018-03-22T01:42:41.233Z,10.30
2018-03-22T01:45:09.099Z,11.05
2018-03-22T01:47:36.967Z,9.90
2018-03-22T01:50:04.834Z,10.50
2018-03-22T01:52:32.702Z,9.70
2018-03-22T01:55:00.570Z,10.43
2018-03-22T01:57:28.436Z,9.77
2018-03-22T01:59:56.303Z,10.02
2018-03-22T02:02:24.172Z,10.20
2018-03-22T02:04:52.038Z,9.07
2018-03-22T02:07:19.910Z,9.50
2018-03-22T02:09:48.490Z,9.63
2018-03-22T02:12:16.286Z,9.85
2018-03-22T02:14:44.839Z,10.57
2018-03-22T02:17:12.673Z,9.43
2018-03-22T02:19:40.471Z,8.88
2018-03-22T02:22:08.339Z,10.00
2018-03-22T02:24:36.206Z,9.02
2018-03-22T02:27:04.073Z,8.77
2018-03-22T02:29:31.940Z,8.52
2018-03-22T02:31:59.808Z,8.10
2018-03-22T02:34:27.675Z,8.52
2018-03-22T02:36:55.542Z,7.68
2018-03-22T02:39:23.409Z,8.38
2018-03-22T02:41:51.284Z,7.10
2018-03-22T02:44:19.906Z,7.43
2018-03-22T02:46:48.548Z,7.43
2018-03-22T02:49:16.416Z,7.40
2018-03-22T02:51:44.282Z,7.32
2018-03-22T02:54:12.149Z,9.68
2018-03-22T02:56:40.017Z,8.73
2018-03-22T02:59:07.887Z,9.57
2018-03-22T03:01:35.756Z,9.80
2018-03-22T03:04:03.621Z,9.68
2018-03-22T03:06:31.487Z,9.00
2018-03-22T03:08:59.353Z,9.57
2018-03-22T03:11:27.118Z,9.40
2018-03-22T03:13:55.088Z,8.60
2018-03-22T03:16:22.960Z,8.60
2018-03-22T03:18:50.823Z,8.90
2018-03-22T03:21:18.691Z,8.40
2018-03-22T03:23:46.556Z,8.82
2018-03-22T03:26:14.424Z,9.02
2018-03-22T03:28:42.290Z,9.50
2018-03-22T03:31:10.165Z,10.05
2018-03-22T03:33:38.025Z,9.02
2018-03-22T03:36:05.894Z,9.50
2018-03-22T03:38:33.761Z,10.32
2018-03-22T03:41:01.628Z,8.63
2018-03-22T03:43:29.495Z,9.80
2018-03-22T03:45:57.363Z,9.23
2018-03-22T03:48:25.231Z,9.40
2018-03-22T03:50:53.200Z,9.10
2018-03-22T03:53:21.067Z,9.63
2018-03-22T03:55:48.938Z,9.23
2018-03-22T03:58:16.801Z,8.93
2018-03-22T04:00:44.671Z,8.93
2018-03-22T04:03:12.537Z,8.70
2018-03-22T04:05:40.404Z,8.73
2018-03-22T04:08:08.271Z,7.12
2018-03-22T04:10:36.138Z,8.30
2018-03-22T04:13:04.007Z,8.18
2018-03-22T04:15:31.770Z,8.60
2018-03-22T04:17:59.637Z,8.43
2018-03-22T04:20:27.403Z,7.93
2018-03-22T04:22:55.269Z,7.82
2018-03-22T04:25:23.137Z,6.87
2018-03-22T04:27:51.007Z,7.43
2018-03-22T04:30:18.872Z,7.78
2018-03-22T04:32:46.744Z,8.38
2018-03-22T04:35:14.708Z,7.70
2018-03-22T04:37:42.714Z,8.07
2018-03-22T04:40:13.307Z,8.00
2018-03-22T04:42:43.431Z,7.22
2018-03-22T04:45:11.298Z,6.75
2018-03-22T04:47:39.165Z,7.12
2018-03-22T04:50:07.033Z,6.95
2018-03-22T04:52:34.900Z,7.30
2018-03-22T04:55:02.767Z,7.20
2018-03-22T04:57:30.634Z,6.87
2018-03-22T04:59:58.501Z,7.28
2018-03-22T05:02:26.267Z,7.25
2018-03-22T05:04:54.133Z,6.85
2018-03-22T05:07:22.001Z,7.22
2018-03-22T05:09:49.766Z,7.05
2018-03-22T05:12:17.634Z,6.57
2018-03-22T05:14:45.430Z,6.55
2018-03-22T05:17:14.087Z,6.95
2018-03-22T05:19:41.953Z,7.78
2018-03-22T05:22:09.819Z,7.10
2018-03-22T05:24:37.900Z,8.00
2018-03-22T05:27:05.760Z,6.70
2018-03-22T05:29:33.627Z,7.22
2018-03-22T05:32:02.251Z,6.50
2018-03-22T05:34:34.468Z,6.22
2018-03-22T05:37:02.348Z,7.50
2018-03-22T05:39:30.216Z,5.80
2018-03-22T05:41:58.083Z,7.20
2018-03-22T05:44:25.950Z,6.15
2018-03-22T05:46:53.819Z,7.10
2018-03-22T05:49:21.822Z,6.62
2018-03-22T05:51:50.473Z,6.15
2018-03-22T05:54:18.342Z,6.18
2018-03-22T05:56:46.208Z,6.15
2018-03-22T05:59:14.076Z,6.37
2018-03-22T06:01:41.950Z,7.18
2018-03-22T06:04:09.885Z,6.78
2018-03-22T06:06:37.677Z,7.03
2018-03-22T06:09:05.546Z,6.93
2018-03-22T06:11:33.412Z,6.53
2018-03-22T06:14:01.283Z,6.65
2018-03-22T06:16:29.147Z,7.65
2018-03-22T06:18:57.014Z,6.68
2018-03-22T06:21:24.881Z,6.93
2018-03-22T06:23:52.749Z,6.22
2018-03-22T06:26:20.616Z,7.00
2018-03-22T06:28:48.483Z,6.28
2018-03-22T06:31:16.350Z,5.22
2018-03-22T06:33:44.217Z,6.20
2018-03-22T06:36:12.085Z,6.85
2018-03-22T06:38:39.955Z,7.32
2018-03-22T06:41:07.819Z,6.95
2018-03-22T06:43:35.688Z,7.68
2018-03-22T06:46:03.554Z,7.10
2018-03-22T06:48:31.422Z,7.18
2018-03-22T06:50:59.288Z,7.75
2018-03-22T06:53:27.158Z,6.40
2018-03-22T06:55:55.023Z,7.72
2018-03-22T06:58:22.891Z,8.27
2018-03-22T07:00:50.759Z,6.80
2018-03-22T07:03:18.626Z,7.25
2018-03-22T07:05:46.494Z,7.05
2018-03-22T07:08:14.360Z,6.35
2018-03-22T07:10:42.228Z,6.50
2018-03-22T07:13:10.098Z,6.93
2018-03-22T07:15:37.961Z,6.80
2018-03-22T07:18:05.830Z,7.18
2018-03-22T07:20:33.695Z,6.75
2018-03-22T07:23:01.570Z,5.65
2018-03-22T07:25:29.444Z,7.05
2018-03-22T07:27:57.298Z,7.22
2018-03-22T07:30:25.165Z,7.18
2018-03-22T07:32:53.036Z,8.40
2018-03-22T07:35:20.900Z,7.70
2018-03-22T07:37:48.766Z,6.18
2018-03-22T07:40:16.634Z,6.95
2018-03-22T07:42:44.502Z,6.78
2018-03-22T07:45:12.370Z,6.78
2018-03-22T07:47:40.236Z,7.53
2018-03-22T07:50:08.104Z,6.82
2018-03-22T07:52:35.977Z,6.72
2018-03-22T07:55:04.759Z,6.57
2018-03-22T07:57:32.627Z,6.90
2018-03-22T08:00:00.495Z,6.90
2018-03-22T08:02:28.362Z,7.10
2018-03-22T08:04:56.229Z,6.55
2018-03-22T08:07:24.096Z,7.15
2018-03-22T08:09:51.965Z,6.87
2018-03-22T08:12:19.833Z,8.10
2018-03-22T08:14:47.699Z,7.00
2018-03-22T08:17:15.565Z,7.50
2018-03-22T08:19:43.433Z,6.65
2018-03-22T08:22:11.300Z,7.43
2018-03-22T08:24:39.166Z,7.15
2018-03-22T08:27:07.034Z,7.53
2018-03-22T08:29:34.907Z,7.78
2018-03-22T08:32:02.769Z,7.75
2018-03-22T08:34:30.637Z,8.65
2018-03-22T08:36:58.505Z,8.23
2018-03-22T08:39:26.371Z,7.03
2018-03-22T08:41:54.238Z,7.60
2018-03-22T08:44:22.106Z,6.78
2018-03-22T08:46:49.972Z,7.28
2018-03-22T08:49:17.840Z,8.13
2018-03-22T08:51:45.707Z,7.72
2018-03-22T08:54:13.575Z,7.87
2018-03-22T08:56:41.442Z,8.93
2018-03-22T08:59:09.310Z,8.60
2018-03-22T09:01:37.179Z,9.38
2018-03-22T09:04:05.043Z,7.15
2018-03-22T09:06:32.910Z,8.20
2018-03-22T09:09:00.779Z,9.70
2018-03-22T09:11:28.646Z,9.20
2018-03-22T09:13:56.513Z,9.18
2018-03-22T09:16:24.640Z,8.25
2018-03-22T09:18:53.374Z,10.82
2018-03-22T09:21:21.245Z,10.20
2018-03-22T09:23:49.120Z,10.80
2018-03-22T09:26:16.975Z,10.07
2018-03-22T09:28:44.846Z,15.55
2018-03-22T09:31:12.710Z,15.98
2018-03-22T09:33:40.577Z,16.20
2018-03-22T09:36:08.444Z,17.87
2018-03-22T09:38:36.362Z,16.45
2018-03-22T09:41:04.998Z,17.83
2018-03-22T09:43:32.866Z,18.20
2018-03-22T09:46:00.732Z,18.37
2018-03-22T09:48:28.600Z,19.08
2018-03-22T09:50:56.467Z,19.67
2018-03-22T09:53:24.335Z,19.30
2018-03-22T09:55:52.201Z,19.10
2018-03-22T09:58:20.070Z,19.70
2018-03-22T10:00:47.936Z,19.75
2018-03-22T10:03:15.804Z,19.45
2018-03-22T10:05:43.671Z,18.92
2018-03-22T10:08:11.539Z,21.33
2018-03-22T10:10:39.405Z,18.75
2018-03-22T10:13:07.273Z,18.02
2018-03-22T10:15:35.141Z,17.87
2018-03-22T10:18:03.008Z,18.58
2018-03-22T10:20:30.875Z,19.10
2018-03-22T10:22:58.742Z,19.50
2018-03-22T10:25:26.610Z,20.23
2018-03-22T10:27:54.477Z,19.52
2018-03-22T10:30:22.343Z,17.23
2018-03-22T10:32:50.210Z,20.62
2018-03-22T10:35:18.079Z,18.37
2018-03-22T10:37:45.945Z,19.45
2018-03-22T10:40:13.813Z,21.62
2018-03-22T10:42:41.680Z,18.23
2018-03-22T10:45:09.547Z,18.75
2018-03-22T10:47:37.414Z,21.48
2018-03-22T10:50:05.387Z,21.33
2018-03-22T10:52:33.252Z,22.33
2018-03-22T10:55:01.119Z,20.60
2018-03-22T10:57:28.986Z,24.65
2018-03-22T10:59:56.853Z,23.08
2018-03-22T11:02:30.186Z,20.80
2018-03-22T11:04:58.732Z,22.98
2018-03-22T11:07:26.599Z,20.73
2018-03-22T11:09:54.468Z,22.80
2018-03-22T11:12:22.339Z,22.02
2018-03-22T11:14:50.207Z,22.15
2018-03-22T11:17:19.323Z,21.15
2018-03-22T11:19:50.264Z,22.05
2018-03-22T11:22:20.889Z,20.23
2018-03-22T11:25:06.601Z,22.02
2018-03-22T11:27:38.136Z,21.95
2018-03-22T11:30:09.122Z,22.65
2018-03-22T11:32:40.209Z,21.83
2018-03-22T11:35:10.515Z,20.73
2018-03-22T11:37:41.400Z,22.37
2018-03-22T11:40:11.898Z,22.30
2018-03-22T11:42:42.992Z,24.90
2018-03-22T11:45:14.415Z,23.10
2018-03-22T11:47:44.758Z,21.35
2018-03-22T11:50:15.154Z,22.67
2018-03-22T11:52:45.504Z,23.40
2018-03-22T11:55:17.008Z,19.67
2018-03-22T11:57:48.636Z,20.37
2018-03-22T12:00:18.436Z,22.00
2018-03-22T12:02:47.162Z,21.35
2018-03-22T12:05:15.032Z,20.55
2018-03-22T12:07:42.896Z,19.62
2018-03-22T12:10:10.763Z,19.80
2018-03-22T12:12:38.630Z,20.23
2018-03-22T12:15:06.498Z,21.37
2018-03-22T12:17:34.365Z,19.90
2018-03-22T12:20:02.236Z,20.15
2018-03-22T12:22:30.099Z,18.50
2018-03-22T12:24:57.967Z,17.23
2018-03-22T12:27:25.837Z,17.10
2018-03-22T12:29:53.702Z,21.45
2018-03-22T12:32:21.625Z,18.58
2018-03-22T12:34:50.255Z,19.25
2018-03-22T12:37:18.125Z,19.75
2018-03-22T12:39:45.992Z,17.90
2018-03-22T12:42:13.857Z,19.10
2018-03-22T12:44:41.729Z,18.62
2018-03-22T12:47:09.592Z,18.15
2018-03-22T12:49:37.463Z,16.83
2018-03-22T12:52:05.326Z,18.48
2018-03-22T12:54:33.193Z,17.00
2018-03-22T12:57:01.060Z,17.80
2018-03-22T12:59:28.928Z,17.52
2018-03-22T13:01:56.796Z,17.75
2018-03-22T13:04:24.662Z,17.67
2018-03-22T13:06:52.530Z,16.98
2018-03-22T13:09:20.398Z,16.95
2018-03-22T13:11:48.269Z,18.08
2018-03-22T13:14:16.132Z,16.37
2018-03-22T13:16:44.001Z,18.10
2018-03-22T13:19:11.867Z,16.25
2018-03-22T13:21:39.734Z,17.10
2018-03-22T13:24:07.658Z,17.23
2018-03-22T13:26:36.287Z,17.90
2018-03-22T13:29:04.155Z,18.65
2018-03-22T13:31:32.022Z,19.45
2018-03-22T13:33:59.889Z,17.90
2018-03-22T13:36:27.757Z,16.85
2018-03-22T13:38:55.626Z,18.25
2018-03-22T13:41:23.491Z,18.62
2018-03-22T13:43:51.360Z,19.98
2018-03-22T13:46:19.225Z,18.25
2018-03-22T13:48:47.092Z,18.65
2018-03-22T13:51:14.960Z,17.70
2018-03-22T13:53:42.827Z,17.45
2018-03-22T13:56:10.695Z,18.17
2018-03-22T13:58:38.562Z,16.37
2018-03-22T14:01:06.430Z,17.80
2018-03-22T14:03:34.296Z,18.90
2018-03-22T14:06:02.167Z,19.50
2018-03-22T14:08:30.031Z,17.48
2018-03-22T14:10:57.898Z,17.85
2018-03-22T14:13:25.765Z,17.23
2018-03-22T14:15:53.633Z,18.30
2018-03-22T14:18:21.502Z,17.98
2018-03-22T14:20:49.367Z,19.83
2018-03-22T14:23:17.234Z,18.15
2018-03-22T14:25:45.103Z,18.12
2018-03-22T14:28:12.969Z,17.30
2018-03-22T14:30:40.839Z,15.13
2018-03-22T14:33:08.704Z,13.38
2018-03-22T14:35:36.571Z,11.65
2018-03-22T14:38:04.439Z,14.45
2018-03-22T14:40:32.306Z,16.30
2018-03-22T14:43:00.174Z,11.88
2018-03-22T14:45:28.040Z,12.52
2018-03-22T14:47:55.907Z,11.32
2018-03-22T14:50:23.776Z,11.23
2018-03-22T14:52:51.642Z,10.90
2018-03-22T14:55:19.509Z,11.77
2018-03-22T14:57:47.376Z,11.20
2018-03-22T15:00:15.244Z,11.52
2018-03-22T15:02:43.122Z,10.60
2018-03-22T15:05:10.979Z,10.85
2018-03-22T15:07:38.851Z,10.60
2018-03-22T15:10:06.815Z,10.65
2018-03-22T15:12:34.682Z,10.73
2018-03-22T15:15:02.553Z,10.38
2018-03-22T15:17:30.520Z,10.52
2018-03-22T15:19:58.386Z,10.55
2018-03-22T15:22:26.253Z,11.50
2018-03-22T15:24:54.121Z,11.00
2018-03-22T15:27:21.989Z,10.82
2018-03-22T15:29:49.856Z,10.25
2018-03-22T15:32:17.733Z,12.88
2018-03-22T15:34:45.590Z,12.07
2018-03-22T15:37:13.458Z,11.73
2018-03-22T15:39:41.325Z,11.30
2018-03-22T15:42:09.192Z,11.55
2018-03-22T15:44:37.060Z,11.65
2018-03-22T15:47:04.927Z,11.20
2018-03-22T15:49:32.797Z,12.85
2018-03-22T15:52:00.665Z,12.73
2018-03-22T15:54:28.529Z,12.77
2018-03-22T15:56:56.399Z,12.70
2018-03-22T15:59:24.264Z,12.98
2018-03-22T16:01:52.336Z,13.60
2018-03-22T16:04:20.203Z,13.18
2018-03-22T16:06:48.071Z,13.10
2018-03-22T16:09:16.246Z,11.75
2018-03-22T16:11:44.112Z,11.80
2018-03-22T16:14:11.980Z,11.68
2018-03-22T16:16:39.849Z,9.90
2018-03-22T16:19:07.714Z,11.57
2018-03-22T16:21:35.581Z,11.50
2018-03-22T16:24:03.450Z,13.60
2018-03-22T16:26:31.317Z,12.60
2018-03-22T16:28:59.186Z,12.32
2018-03-22T16:31:27.050Z,10.00
2018-03-22T16:33:54.919Z,11.20
2018-03-22T16:36:22.788Z,11.20
2018-03-22T16:38:51.574Z,8.77
2018-03-22T16:41:19.442Z,9.85
2018-03-22T16:43:47.308Z,9.40
2018-03-22T16:46:15.176Z,7.50
2018-03-22T16:48:43.047Z,8.68
2018-03-22T16:51:10.911Z,9.82
2018-03-22T16:53:38.783Z,9.30
2018-03-22T16:56:06.645Z,10.57
2018-03-22T16:58:34.513Z,8.90
2018-03-22T17:01:02.380Z,8.27
2018-03-22T17:03:30.248Z,8.00
2018-03-22T17:05:58.115Z,8.93
2018-03-22T17:08:25.982Z,8.38
2018-03-22T17:10:53.849Z,8.80
2018-03-22T17:13:21.720Z,9.88
2018-03-22T17:15:49.584Z,11.35
2018-03-22T17:18:17.451Z,14.25
2018-03-22T17:20:45.319Z,12.45
2018-03-22T17:23:13.186Z,10.68
2018-03-22T17:25:41.053Z,10.55
2018-03-22T17:28:08.920Z,10.75
2018-03-22T17:30:36.791Z,12.18
2018-03-22T17:33:04.656Z,10.95
2018-03-22T17:35:32.523Z,9.65
2018-03-22T17:38:00.390Z,8.60
2018-03-22T17:40:28.257Z,9.07
2018-03-22T17:42:56.124Z,11.73
2018-03-22T17:45:23.993Z,10.27
2018-03-22T17:47:52.678Z,9.80
2018-03-22T17:50:20.546Z,10.20
2018-03-22T17:52:48.414Z,9.43
2018-03-22T17:55:16.280Z,9.48
2018-03-22T17:57:44.186Z,8.73
2018-03-22T18:00:12.834Z,9.45
2018-03-22T18:02:40.705Z,9.27
2018-03-22T18:05:08.568Z,9.65
2018-03-22T18:07:36.438Z,8.90
2018-03-22T18:10:04.407Z,9.90
2018-03-22T18:12:32.273Z,10.63
2018-03-22T18:15:00.140Z,10.07
2018-03-22T18:17:28.008Z,10.48
2018-03-22T18:19:55.874Z,9.88
2018-03-22T18:22:23.742Z,10.15
2018-03-22T18:24:51.609Z,11.07
2018-03-22T18:27:19.477Z,13.48
2018-03-22T18:29:47.351Z,15.25
2018-03-22T18:32:15.314Z,15.57
2018-03-22T18:34:43.186Z,14.60
2018-03-22T18:37:11.868Z,14.15
2018-03-22T18:39:39.735Z,14.13
2018-03-22T18:42:07.605Z,12.27
2018-03-22T18:44:35.470Z,14.63
2018-03-22T18:47:03.337Z,16.87
2018-03-22T18:49:31.204Z,15.00
2018-03-22T18:51:59.072Z,14.20
2018-03-22T18:54:26.939Z,14.90
2018-03-22T18:56:54.807Z,15.60
2018-03-22T18:59:22.676Z,14.40
2018-03-22T19:01:50.541Z,16.15
2018-03-22T19:04:18.408Z,14.32
2018-03-22T19:06:46.275Z,16.30
2018-03-22T19:09:14.143Z,14.43
2018-03-22T19:11:42.010Z,14.25
2018-03-22T19:14:09.878Z,16.60
2018-03-22T19:16:37.951Z,14.93
2018-03-22T19:19:05.820Z,15.85
2018-03-22T19:21:33.690Z,17.02
2018-03-22T19:24:01.551Z,18.40
2018-03-22T19:26:29.419Z,16.90
2018-03-22T19:28:57.286Z,17.33
2018-03-22T19:31:25.154Z,17.17
2018-03-22T19:33:53.021Z,19.02
2018-03-22T19:36:20.889Z,18.25
2018-03-22T19:38:48.756Z,17.95
2018-03-22T19:41:16.624Z,18.35
2018-03-22T19:43:44.490Z,16.80
2018-03-22T19:46:12.358Z,18.23
2018-03-22T19:48:40.229Z,17.80
2018-03-22T19:51:08.098Z,17.80
2018-03-22T19:53:35.959Z,20.15
2018-03-22T19:56:03.881Z,18.75
2018-03-22T19:58:32.525Z,20.42
2018-03-22T20:01:01.200Z,20.08
2018-03-22T20:03:29.067Z,19.80
2018-03-22T20:05:56.934Z,19.75
2018-03-22T20:08:24.802Z,22.40
2018-03-22T20:10:52.670Z,21.90
2018-03-22T20:13:20.537Z,21.10
2018-03-22T20:15:48.405Z,21.17
2018-03-22T20:18:16.271Z,20.67
2018-03-22T20:20:44.070Z,23.70
2018-03-22T20:23:12.722Z,21.05
2018-03-22T20:25:40.590Z,24.63
2018-03-22T20:28:08.458Z,21.10
2018-03-22T20:30:36.324Z,21.05
2018-03-22T20:33:04.191Z,21.87
2018-03-22T20:35:32.060Z,22.35
2018-03-22T20:38:00.747Z,22.67
2018-03-22T20:40:28.613Z,21.52
2018-03-22T20:42:56.481Z,23.85
2018-03-22T20:45:24.348Z,21.87
2018-03-22T20:47:52.214Z,23.58
2018-03-22T20:50:20.083Z,23.80
2018-03-22T20:52:47.950Z,22.62
2018-03-22T20:55:15.817Z,25.48
2018-03-22T20:57:43.684Z,24.63
2018-03-22T21:00:11.654Z,23.67
2018-03-22T21:02:39.523Z,23.30
2018-03-22T21:05:07.389Z,23.92
2018-03-22T21:07:35.257Z,21.58
2018-03-22T21:10:03.123Z,25.75
2018-03-22T21:12:31.034Z,24.67
2018-03-22T21:14:59.578Z,26.75
2018-03-22T21:17:27.443Z,25.60
2018-03-22T21:19:55.312Z,25.70
2018-03-22T21:22:23.178Z,26.48
2018-03-22T21:24:51.045Z,25.30
2018-03-22T21:27:18.911Z,25.40
2018-03-22T21:29:46.779Z,25.30
2018-03-22T21:32:14.647Z,26.02
2018-03-22T21:34:42.513Z,25.92
2018-03-22T21:37:10.381Z,27.00
2018-03-22T21:39:38.248Z,26.35
2018-03-22T21:42:07.138Z,26.67
2018-03-22T21:44:35.006Z,26.95
2018-03-22T21:47:14.752Z,25.95
2018-03-22T21:49:42.620Z,25.40
2018-03-22T21:55:19.010Z,26.55
2018-03-22T21:57:46.882Z,27.55
2018-03-22T22:00:14.743Z,27.08
2018-03-22T22:02:42.610Z,26.20
2018-03-22T22:05:10.476Z,25.80
2018-03-22T22:07:38.346Z,26.42
2018-03-22T22:10:06.212Z,25.85
2018-03-22T22:12:34.229Z,26.10
2018-03-22T22:15:02.594Z,27.00
2018-03-22T22:17:31.145Z,26.80
2018-03-22T22:19:59.025Z,27.87
2018-03-22T22:22:26.879Z,27.70
2018-03-22T22:24:54.746Z,28.60
2018-03-22T22:27:22.615Z,28.98
2018-03-22T22:29:50.380Z,28.55
2018-03-22T22:32:18.246Z,29.42
2018-03-22T22:34:46.116Z,28.08
2018-03-22T22:37:13.983Z,28.70
2018-03-22T22:39:41.849Z,24.92
2018-03-22T22:42:09.716Z,26.27
2018-03-22T22:44:37.609Z,29.30
2018-03-22T22:47:05.451Z,26.23
2018-03-22T22:49:33.320Z,25.17
2018-03-22T22:52:01.186Z,26.83
2018-03-22T22:54:29.053Z,28.08
2018-03-22T22:56:56.921Z,27.87
2018-03-22T22:59:24.794Z,25.42
2018-03-22T23:01:52.654Z,25.65
2018-03-22T23:04:20.522Z,26.80
2018-03-22T23:06:48.389Z,25.92
2018-03-22T23:09:16.257Z,26.80
2018-03-22T23:11:44.123Z,23.95
2018-03-22T23:14:11.991Z,27.40
2018-03-22T23:16:39.860Z,26.83
2018-03-22T23:19:07.726Z,24.63
2018-03-22T23:21:35.593Z,25.83
2018-03-22T23:24:03.459Z,25.23
2018-03-22T23:26:31.328Z,25.70
2018-03-22T23:28:59.195Z,26.58
2018-03-22T23:31:27.062Z,24.50
2018-03-22T23:33:54.930Z,25.58
2018-03-22T23:36:22.797Z,26.60
2018-03-22T23:38:50.670Z,25.75
2018-03-22T23:41:18.536Z,29.55
2018-03-22T23:43:46.402Z,28.42
2018-03-22T23:46:14.271Z,29.27
2018-03-22T23:48:42.137Z,29.00
2018-03-22T23:51:10.005Z,28.00
2018-03-22T23:53:37.871Z,29.02
2018-03-22T23:56:05.736Z,26.77
2018-03-22T23:58:33.607Z,28.20
